Time;durP1;ratioP1;P1;durP2;ratioP2;P2;SDS_P1;SDS_P2;PMS_P1;PMS_P2;Temp;Humidity;BMP_temperature;BMP_pressure;BME280_temperature;BME280_humidity;BME280_pressure;Samples;Min_cycle;Max_cycle;Signal;HPM_P1;HPM_P2
2023/08/13 00:01:58;;;;;;;1.93;1.73;;;24.40;98.50;;;;;;4976799;28;20457;-85
2023/08/13 00:04:25;;;;;;;1.83;1.73;;;24.40;98.50;;;;;;4976903;28;20448;-83
2023/08/13 00:06:52;;;;;;;1.43;1.33;;;24.40;98.50;;;;;;4976770;28;20534;-83
2023/08/13 00:09:21;;;;;;;1.40;1.30;;;24.40;98.60;;;;;;4976276;28;20453;-82
2023/08/13 00:11:47;;;;;;;1.70;1.60;;;24.40;98.50;;;;;;4973234;28;20830;-82
2023/08/13 00:14:14;;;;;;;2.17;1.73;;;24.40;98.60;;;;;;4976577;28;20451;-82
2023/08/13 00:16:41;;;;;;;1.50;1.40;;;24.40;98.60;;;;;;4976591;28;20956;-83
2023/08/13 00:19:08;;;;;;;1.50;1.40;;;24.40;98.60;;;;;;4976334;28;20473;-83
2023/08/13 00:21:36;;;;;;;1.70;1.30;;;24.40;98.50;;;;;;4976181;28;20453;-82
2023/08/13 00:24:03;;;;;;;1.57;1.47;;;24.40;98.50;;;;;;4976755;28;20444;-83
2023/08/13 00:26:31;;;;;;;2.37;1.60;;;24.40;98.50;;;;;;4976101;28;20557;-83
2023/08/13 00:28:58;;;;;;;1.50;1.40;;;24.40;98.50;;;;;;4976350;28;20537;-83
2023/08/13 00:31:24;;;;;;;1.63;1.40;;;24.40;98.50;;;;;;4976494;28;20479;-83
2023/08/13 00:33:51;;;;;;;1.90;1.77;;;24.40;98.50;;;;;;4976547;28;20441;-83
2023/08/13 00:36:18;;;;;;;2.47;1.30;;;24.40;98.50;;;;;;4976256;28;20449;-81
2023/08/13 00:38:45;;;;;;;1.50;1.40;;;24.40;98.50;;;;;;4976824;28;20550;-82
2023/08/13 00:41:12;;;;;;;1.90;1.70;;;24.40;98.50;;;;;;4974863;28;20466;-82
2023/08/13 00:43:40;;;;;;;1.57;1.47;;;24.40;98.40;;;;;;4975395;28;20450;-83
2023/08/13 00:46:08;;;;;;;1.30;1.20;;;24.40;98.50;;;;;;4975965;28;20927;-83
2023/08/13 00:48:37;;;;;;;2.13;1.93;;;24.40;98.50;;;;;;4975716;28;20492;-82
2023/08/13 00:51:05;;;;;;;2.20;2.00;;;24.40;98.40;;;;;;4975586;28;20450;-83
2023/08/13 00:53:32;;;;;;;3.50;1.90;;;24.40;98.40;;;;;;4975611;28;20455;-83
2023/08/13 00:55:59;;;;;;;2.37;1.40;;;24.40;98.40;;;;;;4975506;28;20566;-82
2023/08/13 00:58:26;;;;;;;2.20;1.70;;;24.40;98.40;;;;;;4974864;28;20544;-83
2023/08/13 01:00:54;;;;;;;1.80;1.67;;;24.40;98.30;;;;;;4974733;28;20546;-83
2023/08/13 01:03:21;;;;;;;1.87;1.67;;;24.40;98.30;;;;;;4975005;28;20447;-82
2023/08/13 01:05:54;;;;;;;2.00;1.90;;;24.40;98.30;;;;;;4975269;28;20426;-81
2023/08/13 01:08:29;;;;;;;1.73;1.50;;;24.40;98.30;;;;;;4957944;28;20875;-81
2023/08/13 01:11:03;;;;;;;1.40;1.30;;;24.40;98.30;;;;;;4974637;28;20447;-81
2023/08/13 01:13:34;;;;;;;1.60;1.50;;;24.40;98.30;;;;;;4972696;28;20490;-82
2023/08/13 01:16:05;;;;;;;1.77;1.67;;;24.40;98.40;;;;;;4967961;28;20526;-82
2023/08/13 01:18:33;;;;;;;2.00;1.60;;;24.40;98.50;;;;;;4975375;28;20878;-89
2023/08/13 01:21:00;;;;;;;1.70;1.60;;;24.40;98.50;;;;;;4975702;28;20440;-88
2023/08/13 01:23:28;;;;;;;1.70;1.60;;;24.40;98.60;;;;;;4975373;28;20444;-85
2023/08/13 01:25:59;;;;;;;2.60;1.63;;;24.30;98.60;;;;;;4975021;28;20469;-82
2023/08/13 01:28:36;;;;;;;1.47;1.37;;;24.40;98.60;;;;;;4975730;28;20440;-89
2023/08/13 01:31:09;;;;;;;1.50;1.40;;;24.40;98.60;;;;;;4975573;28;20482;-88
2023/08/13 01:33:37;;;;;;;1.70;1.60;;;24.30;98.50;;;;;;4975626;28;20893;-85
2023/08/13 01:36:06;;;;;;;1.70;1.60;;;24.30;98.60;;;;;;4975547;28;20535;-86
2023/08/13 01:38:35;;;;;;;1.47;1.37;;;24.30;98.40;;;;;;4975025;28;20451;-87
2023/08/13 01:41:02;;;;;;;1.43;1.33;;;24.30;98.60;;;;;;4975366;28;20451;-88
2023/08/13 01:43:29;;;;;;;1.50;1.40;;;24.30;98.60;;;;;;4975513;28;20545;-89
2023/08/13 01:45:56;;;;;;;1.50;1.40;;;24.30;98.60;;;;;;4975107;28;20492;-82
2023/08/13 01:48:23;;;;;;;1.67;1.57;;;24.40;98.60;;;;;;4974979;28;20533;-82
2023/08/13 01:50:50;;;;;;;1.80;1.70;;;24.30;98.50;;;;;;4974646;28;20451;-81
2023/08/13 01:53:17;;;;;;;1.30;1.20;;;24.30;98.60;;;;;;4974592;28;20490;-83
2023/08/13 01:55:45;;;;;;;1.50;1.37;;;24.40;98.40;;;;;;4974678;28;20886;-82
2023/08/13 01:58:12;;;;;;;1.50;1.37;;;24.30;98.40;;;;;;4974978;28;20447;-83
2023/08/13 02:00:39;;;;;;;1.47;1.37;;;24.30;98.40;;;;;;4974768;28;20536;-83
2023/08/13 02:03:06;;;;;;;1.60;1.50;;;24.30;98.50;;;;;;4974766;28;20446;-83
2023/08/13 02:05:32;;;;;;;1.47;1.37;;;24.40;98.50;;;;;;4974800;28;20452;-82
2023/08/13 02:07:59;;;;;;;1.43;1.30;;;24.30;98.50;;;;;;4973587;28;20441;-83
2023/08/13 02:10:26;;;;;;;1.50;1.30;;;24.30;98.50;;;;;;4974709;28;20530;-81
2023/08/13 02:12:54;;;;;;;1.40;1.30;;;24.30;98.50;;;;;;4974450;28;20486;-83
2023/08/13 02:15:21;;;;;;;2.30;1.70;;;24.30;98.50;;;;;;4974600;28;20451;-82
2023/08/13 02:17:48;;;;;;;1.90;1.70;;;24.30;98.50;;;;;;4974537;28;20478;-83
2023/08/13 02:20:17;;;;;;;1.70;1.60;;;24.30;98.60;;;;;;4974285;28;20877;-84
2023/08/13 02:22:44;;;;;;;2.80;1.53;;;24.30;98.70;;;;;;4974353;28;20483;-82
2023/08/13 02:25:12;;;;;;;1.30;1.20;;;24.30;98.60;;;;;;4974127;28;20466;-82
2023/08/13 02:27:39;;;;;;;1.37;1.27;;;24.30;98.50;;;;;;4974551;28;20437;-81
2023/08/13 02:30:09;;;;;;;1.30;1.20;;;24.30;98.40;;;;;;4974695;28;20521;-83
2023/08/13 02:32:36;;;;;;;2.00;1.70;;;24.30;98.40;;;;;;4974239;28;20488;-83
2023/08/13 02:35:03;;;;;;;1.70;1.27;;;24.30;98.80;;;;;;4974381;28;20881;-83
2023/08/13 02:37:30;;;;;;;1.40;1.30;;;24.30;98.30;;;;;;4974415;28;20529;-82
2023/08/13 02:39:57;;;;;;;1.60;1.47;;;24.30;98.30;;;;;;4955340;29;20803;-83
2023/08/13 02:42:24;;;;;;;1.30;1.20;;;24.30;98.30;;;;;;4955238;29;20448;-83
2023/08/13 02:44:51;;;;;;;1.70;1.60;;;24.30;98.40;;;;;;4969492;28;20441;-82
2023/08/13 02:47:19;;;;;;;1.33;1.23;;;24.30;98.30;;;;;;4974182;28;20442;-84
2023/08/13 02:49:46;;;;;;;1.40;1.30;;;24.30;98.60;;;;;;4975548;28;20553;-87
2023/08/13 02:52:13;;;;;;;1.43;1.30;;;24.30;98.10;;;;;;4977977;28;20480;-83
2023/08/13 02:54:40;;;;;;;1.43;1.33;;;24.30;98.20;;;;;;4978243;28;20827;-83
2023/08/13 02:57:06;;;;;;;1.40;1.30;;;24.30;98.10;;;;;;4978104;28;20443;-88
2023/08/13 02:59:33;;;;;;;1.67;1.57;;;24.20;98.00;;;;;;4977887;28;20444;-82
2023/08/13 03:02:00;;;;;;;1.50;1.40;;;24.20;97.90;;;;;;4978012;28;20440;-83
2023/08/13 03:04:28;;;;;;;1.50;1.33;;;24.30;98.00;;;;;;4978338;28;20474;-89
2023/08/13 03:06:55;;;;;;;1.73;1.63;;;24.30;98.00;;;;;;4978034;28;20448;-82
2023/08/13 03:09:23;;;;;;;1.50;1.40;;;24.30;97.90;;;;;;4977976;28;20966;-90
2023/08/13 03:11:50;;;;;;;2.00;1.60;;;24.20;97.80;;;;;;4977627;28;20437;-83
2023/08/13 03:14:18;;;;;;;1.23;1.10;;;24.20;97.70;;;;;;4978151;28;20481;-83
2023/08/13 03:16:44;;;;;;;1.37;1.27;;;24.20;97.80;;;;;;4978003;28;20531;-86
2023/08/13 03:19:11;;;;;;;1.40;1.30;;;24.30;97.80;;;;;;4977835;28;20446;-83
2023/08/13 03:21:47;;;;;;;1.40;1.30;;;24.30;97.70;;;;;;4977768;28;20458;-84
2023/08/13 03:24:14;;;;;;;1.60;1.43;;;24.20;97.60;;;;;;4977130;28;20469;-84
2023/08/13 03:26:42;;;;;;;1.50;1.40;;;24.20;97.70;;;;;;4977487;28;20457;-83
2023/08/13 03:29:09;;;;;;;1.50;1.30;;;24.20;97.70;;;;;;4977538;28;20521;-82
2023/08/13 03:31:35;;;;;;;1.63;1.40;;;24.20;97.70;;;;;;4977398;28;20925;-83
2023/08/13 03:34:02;;;;;;;1.50;1.40;;;24.20;97.70;;;;;;4977417;28;20493;-84
2023/08/13 03:36:30;;;;;;;2.57;1.40;;;24.20;97.70;;;;;;4977375;28;20438;-83
2023/08/13 03:38:58;;;;;;;1.33;1.20;;;24.20;97.70;;;;;;4977008;28;20442;-82
2023/08/13 03:41:25;;;;;;;2.03;1.33;;;24.20;97.70;;;;;;4977258;28;20991;-84
2023/08/13 03:43:52;;;;;;;1.63;1.53;;;24.20;97.70;;;;;;4977419;28;20473;-83
2023/08/13 03:46:18;;;;;;;1.50;1.27;;;24.20;97.70;;;;;;4976809;28;20496;-83
2023/08/13 03:48:45;;;;;;;1.30;1.20;;;24.20;97.90;;;;;;4977214;28;20444;-84
2023/08/13 03:51:12;;;;;;;1.33;1.23;;;24.20;98.00;;;;;;4977300;28;20442;-83
2023/08/13 03:53:39;;;;;;;1.50;1.40;;;24.20;97.70;;;;;;4977023;28;20481;-84
2023/08/13 03:56:07;;;;;;;1.60;1.20;;;24.20;97.70;;;;;;4977082;28;20504;-83
2023/08/13 03:58:38;;;;;;;1.43;1.30;;;24.20;97.80;;;;;;4976987;28;20442;-85
2023/08/13 04:01:06;;;;;;;1.53;1.43;;;24.20;97.80;;;;;;4976219;28;20445;-88
2023/08/13 04:03:32;;;;;;;1.30;1.20;;;24.20;97.80;;;;;;4977337;28;20441;-82
2023/08/13 04:05:59;;;;;;;1.80;1.70;;;24.20;97.70;;;;;;4976835;28;20553;-89
2023/08/13 04:08:27;;;;;;;1.40;1.30;;;24.20;97.70;;;;;;4977192;28;20443;-86
2023/08/13 04:10:54;;;;;;;1.70;1.00;;;24.20;97.80;;;;;;4976843;28;20477;-82
2023/08/13 04:13:22;;;;;;;2.03;1.57;;;24.20;97.80;;;;;;4976726;28;20492;-82
2023/08/13 04:15:49;;;;;;;1.40;1.23;;;24.20;97.70;;;;;;4976677;28;20444;-82
2023/08/13 04:18:15;;;;;;;1.97;1.63;;;24.20;97.70;;;;;;4976666;28;20822;-82
2023/08/13 04:20:42;;;;;;;1.83;1.73;;;24.20;97.70;;;;;;4976551;28;20446;-81
2023/08/13 04:23:09;;;;;;;1.50;1.40;;;24.20;97.70;;;;;;4976532;28;20435;-82
2023/08/13 04:25:36;;;;;;;1.53;1.40;;;24.20;97.70;;;;;;4976229;28;20462;-82
2023/08/13 04:28:03;;;;;;;1.43;1.30;;;24.20;97.70;;;;;;4976344;28;20506;-82
2023/08/13 04:30:31;;;;;;;1.53;1.43;;;24.20;97.80;;;;;;4976277;28;20530;-83
2023/08/13 04:32:58;;;;;;;1.20;1.00;;;24.20;97.70;;;;;;4976272;28;20876;-83
2023/08/13 04:35:25;;;;;;;1.47;1.37;;;24.20;97.70;;;;;;4976354;28;20482;-82
2023/08/13 04:37:52;;;;;;;1.33;1.23;;;24.20;97.80;;;;;;4976439;28;20431;-83
2023/08/13 04:40:19;;;;;;;1.57;1.43;;;24.20;97.70;;;;;;4976123;28;21014;-81
2023/08/13 04:42:46;;;;;;;2.00;1.53;;;24.20;97.80;;;;;;4976190;28;20452;-82
2023/08/13 04:45:13;;;;;;;1.60;1.50;;;24.20;97.80;;;;;;4975823;28;20485;-82
2023/08/13 04:47:41;;;;;;;1.70;1.60;;;24.20;97.80;;;;;;4976091;28;20803;-83
2023/08/13 04:50:09;;;;;;;2.70;1.30;;;24.20;97.90;;;;;;4975874;28;20446;-82
2023/08/13 04:52:46;;;;;;;1.33;1.23;;;24.20;97.80;;;;;;4975961;28;20444;-91
2023/08/13 04:55:13;;;;;;;2.00;1.47;;;24.20;97.90;;;;;;4976124;28;20822;-83
2023/08/13 04:57:39;;;;;;;1.63;1.53;;;24.20;97.80;;;;;;4975998;28;20451;-83
2023/08/13 05:00:09;;;;;;;1.30;1.20;;;24.20;97.80;;;;;;4975697;28;20461;-82
2023/08/13 05:02:36;;;;;;;1.50;1.40;;;24.20;97.80;;;;;;4976092;28;20443;-89
2023/08/13 05:05:05;;;;;;;1.50;1.33;;;24.20;97.90;;;;;;4975885;28;20848;-82
2023/08/13 05:07:31;;;;;;;1.50;1.40;;;24.20;97.90;;;;;;4975099;28;20447;-82
2023/08/13 05:09:58;;;;;;;1.70;1.53;;;24.20;97.80;;;;;;4975678;28;20446;-83
2023/08/13 05:12:25;;;;;;;1.50;1.20;;;24.20;97.90;;;;;;4975124;28;20438;-81
2023/08/13 05:14:52;;;;;;;1.47;1.33;;;24.20;97.80;;;;;;4974957;28;20565;-82
2023/08/13 05:17:20;;;;;;;2.27;1.30;;;24.20;97.80;;;;;;4975090;28;20528;-82
2023/08/13 05:19:47;;;;;;;1.30;1.20;;;24.20;97.70;;;;;;4967635;28;20784;-82
2023/08/13 05:22:15;;;;;;;1.40;1.30;;;24.20;97.60;;;;;;4972710;28;20456;-83
2023/08/13 05:24:42;;;;;;;1.20;1.10;;;24.20;97.70;;;;;;4975288;28;20465;-83
2023/08/13 05:27:09;;;;;;;2.10;1.37;;;24.20;97.70;;;;;;4974987;28;20449;-82
2023/08/13 05:29:36;;;;;;;1.60;1.50;;;24.20;97.60;;;;;;4975422;28;20444;-83
2023/08/13 05:32:03;;;;;;;1.67;1.30;;;24.20;97.60;;;;;;4975244;28;20447;-84
2023/08/13 05:34:29;;;;;;;1.30;1.10;;;24.20;97.50;;;;;;4975389;28;20495;-91
2023/08/13 05:36:56;;;;;;;1.50;1.33;;;24.20;97.60;;;;;;4975461;28;20536;-87
2023/08/13 05:39:25;;;;;;;1.50;1.40;;;24.20;97.60;;;;;;4975428;28;20444;-90
2023/08/13 05:41:52;;;;;;;1.50;1.23;;;24.20;97.70;;;;;;4975508;28;20823;-89
2023/08/13 05:44:19;;;;;;;1.33;1.20;;;24.20;97.60;;;;;;4975642;28;20448;-90
2023/08/13 05:46:45;;;;;;;1.60;1.50;;;24.20;97.60;;;;;;4976100;28;20485;-81
2023/08/13 05:49:12;;;;;;;1.70;1.43;;;24.20;97.60;;;;;;4978850;28;20440;-88
2023/08/13 05:51:39;;;;;;;2.00;1.60;;;24.20;97.50;;;;;;4975516;28;20533;-90
2023/08/13 05:54:08;;;;;;;1.70;1.20;;;24.20;97.60;;;;;;4974867;28;20495;-89
2023/08/13 05:56:37;;;;;;;1.60;1.50;;;24.20;97.60;;;;;;4975092;28;20452;-88
2023/08/13 05:59:04;;;;;;;1.30;1.20;;;24.20;97.50;;;;;;4975186;28;20437;-89
2023/08/13 06:01:31;;;;;;;1.13;1.00;;;24.20;97.60;;;;;;4975152;28;20441;-90
2023/08/13 06:03:58;;;;;;;1.30;1.20;;;24.20;97.70;;;;;;4974877;28;20451;-90
2023/08/13 06:06:24;;;;;;;1.40;1.30;;;24.20;97.70;;;;;;4977318;28;20456;-94
2023/08/13 06:08:54;;;;;;;1.90;1.37;;;24.20;97.80;;;;;;4989983;28;20474;-87
2023/08/13 06:11:21;;;;;;;4.80;1.43;;;24.20;97.50;;;;;;4992000;28;20522;-90
2023/08/13 06:13:50;;;;;;;1.43;1.33;;;24.20;97.50;;;;;;4988616;28;20490;-88
2023/08/13 06:16:17;;;;;;;1.40;1.30;;;24.20;97.60;;;;;;4989278;28;20463;-90
2023/08/13 06:18:44;;;;;;;2.13;1.60;;;24.10;97.80;;;;;;4974623;28;20456;-88
2023/08/13 06:21:11;;;;;;;1.70;1.60;;;24.10;97.50;;;;;;4991304;28;20517;-87
2023/08/13 06:23:39;;;;;;;3.87;1.70;;;24.10;97.50;;;;;;4990789;28;20478;-90
2023/08/13 06:26:06;;;;;;;1.70;1.50;;;24.10;97.40;;;;;;4981077;28;20457;-93
2023/08/13 06:28:33;;;;;;;1.77;1.37;;;24.10;97.50;;;;;;4979897;28;20446;-94
2023/08/13 06:31:03;;;;;;;1.47;1.30;;;24.10;97.50;;;;;;4983918;28;20480;-92
2023/08/13 06:33:30;;;;;;;1.70;1.60;;;24.10;97.50;;;;;;4984380;28;20501;-91
2023/08/13 06:35:57;;;;;;;2.57;1.60;;;24.10;97.50;;;;;;4982761;28;20530;-88
2023/08/13 06:38:26;;;;;;;1.57;1.27;;;24.10;97.60;;;;;;4983477;28;20438;-89
2023/08/13 06:40:52;;;;;;;2.27;1.70;;;24.10;97.60;;;;;;4983790;28;20601;-94
2023/08/13 06:43:19;;;;;;;1.70;1.60;;;24.10;97.50;;;;;;4981709;28;20544;-88
2023/08/13 06:45:47;;;;;;;4.97;2.20;;;24.10;97.60;;;;;;4981960;28;20525;-89
2023/08/13 06:48:15;;;;;;;7.20;2.37;;;24.20;97.70;;;;;;4983662;28;20467;-92
2023/08/13 06:50:42;;;;;;;2.50;2.30;;;24.20;97.60;;;;;;4987469;28;20538;-91
2023/08/13 06:53:11;;;;;;;4.93;2.30;;;24.20;97.60;;;;;;4988433;28;21283;-90
2023/08/13 06:55:38;;;;;;;3.50;2.30;;;24.10;97.30;;;;;;4988716;28;20469;-90
2023/08/13 06:58:05;;;;;;;6.60;1.80;;;24.10;97.20;;;;;;4984799;28;20485;-92
2023/08/13 07:00:32;;;;;;;9.20;2.13;;;24.10;97.80;;;;;;4982080;28;20444;-92
2023/08/13 07:02:59;;;;;;;4.07;2.20;;;24.10;97.20;;;;;;4981355;28;20507;-94
2023/08/13 07:05:27;;;;;;;3.90;2.50;;;24.10;97.10;;;;;;4980681;28;20490;-94
2023/08/13 07:08:14;;;;;;;5.80;2.50;;;24.00;96.80;;;;;;4982606;28;20449;-89
2023/08/13 07:10:41;;;;;;;4.20;1.83;;;24.00;96.80;;;;;;4988663;28;20441;-92
2023/08/13 07:13:11;;;;;;;3.50;1.97;;;24.00;96.70;;;;;;4989087;28;20444;-91
2023/08/13 07:15:54;;;;;;;4.63;2.37;;;24.00;97.00;;;;;;4990571;28;20512;-87
2023/08/13 07:18:27;;;;;;;8.13;2.20;;;24.00;97.10;;;;;;5006565;23;20463;-88
2023/08/13 07:20:55;;;;;;;2.10;1.90;;;24.00;97.30;;;;;;4973912;29;20441;-87
2023/08/13 07:23:28;;;;;;;3.50;1.90;;;23.90;97.30;;;;;;4974324;29;20544;-87
2023/08/13 07:25:57;;;;;;;4.50;2.80;;;23.90;97.40;;;;;;4982581;23;20493;-87
2023/08/13 07:31:04;;;;;;;4.80;2.33;;;24.00;97.60;;;;;;2298384;23;20481;-87
2023/08/13 07:33:34;;;;;;;3.40;1.93;;;24.00;97.50;;;;;;4973204;29;20443;-88
2023/08/13 07:43:39;;;;;;;4.83;1.87;;;24.10;97.50;;;;;;5049777;23;20486;-86
2023/08/13 07:46:26;;;;;;;3.40;1.70;;;24.10;97.50;;;;;;4943816;29;20528;-95
2023/08/13 07:48:53;;;;;;;3.90;1.80;;;24.10;97.50;;;;;;4939753;29;20475;-92
2023/08/13 07:51:20;;;;;;;3.43;1.97;;;24.10;97.60;;;;;;4939907;29;20447;-95
2023/08/13 07:53:47;;;;;;;4.37;1.90;;;24.10;97.50;;;;;;4939958;29;21060;-93
2023/08/13 07:56:13;;;;;;;4.67;2.90;;;24.10;97.10;;;;;;4940346;29;20451;-94
2023/08/13 07:58:42;;;;;;;4.53;2.10;;;24.10;96.80;;;;;;4940661;29;20452;-95
2023/08/13 08:01:08;;;;;;;5.53;2.40;;;24.10;96.90;;;;;;4940249;29;20957;-95
2023/08/13 08:03:35;;;;;;;3.47;2.53;;;24.10;97.10;;;;;;4938882;29;20461;-94
2023/08/13 08:06:02;;;;;;;3.83;1.90;;;24.20;97.20;;;;;;4938655;29;21012;-91
2023/08/13 08:08:29;;;;;;;3.37;1.97;;;24.20;97.00;;;;;;4939121;29;20462;-85
2023/08/13 08:10:56;;;;;;;5.20;2.00;;;24.10;97.20;;;;;;4938996;29;20538;-90
2023/08/13 08:13:23;;;;;;;6.67;2.67;;;24.10;97.20;;;;;;4939443;29;20795;-90
2023/08/13 08:15:51;;;;;;;6.80;2.37;;;24.20;97.40;;;;;;4938757;29;20443;-90
2023/08/13 08:18:18;;;;;;;4.00;2.03;;;24.20;97.50;;;;;;4938605;29;20547;-90
2023/08/13 08:20:45;;;;;;;4.20;1.60;;;24.10;97.50;;;;;;4938505;29;20484;-92
2023/08/13 08:23:13;;;;;;;9.33;2.37;;;24.10;97.50;;;;;;4938264;29;20546;-92
2023/08/13 08:25:40;;;;;;;4.27;2.10;;;24.10;97.60;;;;;;4938473;29;20460;-92
2023/08/13 08:28:07;;;;;;;2.60;1.87;;;24.10;97.60;;;;;;4938571;29;20535;-90
2023/08/13 08:30:34;;;;;;;4.50;2.00;;;24.20;97.80;;;;;;4938202;29;20483;-91
2023/08/13 08:33:02;;;;;;;5.33;2.00;;;24.10;97.80;;;;;;4938215;29;20451;-91
2023/08/13 08:35:31;;;;;;;3.00;1.90;;;24.10;98.00;;;;;;4938367;29;20508;-91
2023/08/13 08:37:58;;;;;;;3.33;1.80;;;24.20;98.00;;;;;;4938427;29;20814;-91
2023/08/13 08:40:25;;;;;;;2.63;1.80;;;24.10;97.80;;;;;;4938234;29;20475;-91
2023/08/13 08:42:52;;;;;;;4.93;2.13;;;24.20;97.90;;;;;;4938573;29;20538;-91
2023/08/13 08:45:22;;;;;;;3.40;1.40;;;24.10;97.90;;;;;;4937895;29;20481;-91
2023/08/13 08:47:50;;;;;;;3.50;1.70;;;24.20;98.00;;;;;;4938064;29;20462;-91
2023/08/13 08:50:18;;;;;;;4.10;2.23;;;24.20;98.00;;;;;;4938254;29;20448;-91
2023/08/13 08:52:46;;;;;;;2.70;1.80;;;24.20;98.00;;;;;;4938207;29;20523;-91
2023/08/13 08:55:13;;;;;;;3.40;1.70;;;24.20;98.30;;;;;;4938026;29;20495;-91
2023/08/13 08:57:40;;;;;;;3.50;1.67;;;24.20;98.00;;;;;;4937988;29;20454;-90
2023/08/13 09:00:08;;;;;;;2.80;1.90;;;24.10;98.10;;;;;;4938123;29;20870;-90
2023/08/13 09:02:38;;;;;;;2.40;1.43;;;24.20;98.00;;;;;;4938063;29;20442;-90
2023/08/13 09:05:06;;;;;;;2.87;1.73;;;24.20;98.20;;;;;;4937682;29;20459;-90
2023/08/13 09:07:34;;;;;;;2.10;1.70;;;24.10;98.10;;;;;;4937774;29;20449;-90
2023/08/13 09:10:04;;;;;;;4.40;2.00;;;24.20;98.20;;;;;;4937668;29;20446;-90
2023/08/13 09:12:35;;;;;;;2.27;1.50;;;24.20;98.20;;;;;;4938028;29;20798;-90
2023/08/13 09:15:05;;;;;;;3.10;2.20;;;24.20;98.20;;;;;;4937734;29;20496;-91
2023/08/13 09:17:32;;;;;;;1.87;1.57;;;24.20;98.30;;;;;;4937843;29;20501;-91
2023/08/13 09:19:58;;;;;;;1.90;1.70;;;24.20;98.40;;;;;;4937501;29;20456;-91
2023/08/13 09:22:25;;;;;;;2.30;1.40;;;24.20;98.30;;;;;;4937885;29;20455;-91
2023/08/13 09:24:53;;;;;;;2.93;1.57;;;24.10;98.30;;;;;;4937597;29;21031;-91
2023/08/13 09:27:20;;;;;;;3.10;1.73;;;24.20;98.60;;;;;;4937606;29;20485;-91
2023/08/13 09:29:53;;;;;;;2.13;1.93;;;24.20;98.20;;;;;;4937578;29;20926;-91
2023/08/13 09:32:22;;;;;;;3.63;1.50;;;24.20;98.70;;;;;;4938432;29;20443;-91
2023/08/13 09:34:52;;;;;;;2.03;1.30;;;24.20;98.40;;;;;;4937602;29;20488;-91
2023/08/13 09:37:19;;;;;;;2.73;1.40;;;24.20;98.30;;;;;;4937138;29;20447;-91
2023/08/13 09:39:46;;;;;;;2.20;1.43;;;24.20;98.30;;;;;;4937086;29;20452;-91
2023/08/13 09:42:16;;;;;;;1.40;1.30;;;24.20;98.20;;;;;;4937210;29;20523;-90
2023/08/13 09:44:43;;;;;;;1.30;1.20;;;24.20;98.10;;;;;;4937137;29;20476;-91
2023/08/13 09:47:13;;;;;;;1.50;1.10;;;24.20;98.20;;;;;;4937348;29;20535;-90
2023/08/13 09:49:41;;;;;;;3.37;1.70;;;24.20;98.00;;;;;;4937031;29;20448;-91
2023/08/13 09:52:11;;;;;;;1.87;1.30;;;24.20;98.20;;;;;;4937053;29;20540;-90
2023/08/13 09:54:42;;;;;;;2.00;1.50;;;24.20;98.10;;;;;;4937105;29;20894;-91
2023/08/13 09:57:10;;;;;;;2.50;1.77;;;24.20;98.60;;;;;;4937056;29;20438;-90
2023/08/13 09:59:39;;;;;;;3.70;1.40;;;24.20;98.20;;;;;;4936324;29;20938;-90
2023/08/13 10:02:07;;;;;;;1.67;1.20;;;24.20;98.20;;;;;;4936748;29;20457;-90
2023/08/13 10:04:35;;;;;;;1.80;1.50;;;24.20;98.30;;;;;;4936900;29;20448;-91
2023/08/13 10:07:04;;;;;;;3.33;1.50;;;24.20;98.40;;;;;;4937041;29;20452;-91
2023/08/13 10:09:31;;;;;;;2.23;1.60;;;24.20;98.50;;;;;;4936827;29;20969;-90
2023/08/13 10:11:58;;;;;;;1.53;1.37;;;24.20;98.50;;;;;;4936971;29;20533;-90
2023/08/13 10:14:25;;;;;;;3.80;1.60;;;24.20;98.70;;;;;;4936793;29;20486;-91
2023/08/13 10:16:54;;;;;;;1.90;1.40;;;24.20;98.60;;;;;;4936720;29;20448;-91
2023/08/13 10:19:29;;;;;;;1.87;1.20;;;24.20;98.70;;;;;;4936828;29;20443;-91
2023/08/13 10:21:56;;;;;;;2.10;1.23;;;24.20;98.80;;;;;;4936668;29;20462;-91
2023/08/13 10:24:24;;;;;;;2.07;1.57;;;24.20;98.90;;;;;;4936629;29;20999;-91
2023/08/13 10:26:51;;;;;;;1.80;1.20;;;24.20;98.90;;;;;;4936820;29;20837;-91
2023/08/13 10:29:19;;;;;;;1.87;1.60;;;24.20;99.00;;;;;;4936595;29;20484;-91
2023/08/13 10:31:49;;;;;;;1.77;1.43;;;24.20;99.00;;;;;;4936670;29;20534;-91
2023/08/13 10:34:18;;;;;;;2.90;1.50;;;24.20;98.80;;;;;;4936291;29;20440;-91
2023/08/13 10:36:50;;;;;;;1.40;1.30;;;24.20;98.80;;;;;;4936615;29;20448;-91
2023/08/13 10:39:34;;;;;;;1.97;1.50;;;24.20;98.70;;;;;;4936901;29;20439;-91
2023/08/13 10:42:03;;;;;;;2.37;1.13;;;24.20;98.50;;;;;;4936404;29;20441;-91
2023/08/13 10:44:31;;;;;;;7.27;2.40;;;24.20;98.60;;;;;;4936742;29;20566;-91
2023/08/13 10:46:59;;;;;;;1.80;1.60;;;24.20;98.70;;;;;;4936476;29;20457;-91
2023/08/13 10:49:28;;;;;;;1.30;1.20;;;24.20;98.50;;;;;;4936564;29;20488;-90
2023/08/13 10:52:00;;;;;;;2.03;1.23;;;24.20;98.90;;;;;;4936588;29;20955;-91
2023/08/13 10:54:27;;;;;;;1.53;1.30;;;24.20;98.70;;;;;;4936291;29;20467;-91
2023/08/13 10:56:56;;;;;;;2.20;1.43;;;24.20;98.70;;;;;;4936271;29;20447;-91
2023/08/13 10:59:29;;;;;;;1.80;1.40;;;24.20;98.70;;;;;;4936801;29;20446;-91
2023/08/13 11:02:16;;;;;;;1.50;1.20;;;24.20;98.70;;;;;;4936430;29;20445;-91
2023/08/13 11:04:46;;;;;;;1.93;1.10;;;24.20;98.80;;;;;;4936298;29;20854;-91
2023/08/13 11:07:14;;;;;;;1.93;1.23;;;24.20;98.50;;;;;;4936469;29;20438;-90
2023/08/13 11:09:43;;;;;;;1.10;1.00;;;24.20;98.50;;;;;;4936036;29;20439;-91
2023/08/13 11:12:10;;;;;;;1.60;1.40;;;24.20;98.60;;;;;;4939773;29;20443;-91
2023/08/13 11:14:38;;;;;;;1.67;1.10;;;24.20;98.70;;;;;;4939673;29;20531;-91
2023/08/13 11:17:05;;;;;;;1.33;1.00;;;24.20;98.90;;;;;;4939973;29;20447;-90
2023/08/13 11:19:34;;;;;;;2.23;1.40;;;24.20;98.90;;;;;;4923015;29;20922;-90
2023/08/13 11:22:03;;;;;;;1.50;1.20;;;24.20;99.00;;;;;;4939740;29;20788;-90
2023/08/13 11:24:36;;;;;;;1.30;1.20;;;24.20;98.70;;;;;;4939585;29;20897;-91
2023/08/13 11:27:03;;;;;;;1.57;1.13;;;24.20;98.80;;;;;;4939782;29;20439;-90
2023/08/13 11:29:30;;;;;;;2.23;1.17;;;24.20;97.00;;;;;;4939871;29;20930;-91
2023/08/13 11:32:00;;;;;;;1.80;1.47;;;24.20;96.10;;;;;;4940189;29;20440;-91
2023/08/13 11:34:27;;;;;;;1.80;1.20;;;24.10;96.00;;;;;;4939397;29;20448;-91
2023/08/13 11:36:55;;;;;;;1.70;1.43;;;24.20;96.00;;;;;;4939583;29;20546;-91
2023/08/13 11:39:24;;;;;;;1.20;0.90;;;24.20;95.80;;;;;;4939450;29;20453;-90
2023/08/13 11:41:52;;;;;;;2.00;1.23;;;24.20;95.70;;;;;;4939291;29;20500;-90
2023/08/13 11:44:20;;;;;;;1.73;1.27;;;24.20;95.40;;;;;;4939018;29;21043;-90
2023/08/13 11:47:00;;;;;;;2.00;1.53;;;24.20;95.30;;;;;;4939442;29;20825;-91
2023/08/13 11:49:28;;;;;;;2.37;1.20;;;24.20;95.20;;;;;;4939321;29;20461;-90
2023/08/13 11:52:06;;;;;;;2.07;1.20;;;24.20;95.20;;;;;;4939603;29;20443;-90
2023/08/13 11:54:35;;;;;;;2.80;1.27;;;24.20;95.10;;;;;;4939729;29;20474;-91
2023/08/13 11:57:05;;;;;;;3.30;1.70;;;24.20;95.10;;;;;;4939870;29;20451;-91
2023/08/13 11:59:34;;;;;;;1.40;1.30;;;24.20;95.10;;;;;;4939392;29;20522;-91
2023/08/13 12:02:02;;;;;;;2.20;1.50;;;24.20;95.00;;;;;;4939293;29;20478;-91
2023/08/13 12:04:32;;;;;;;1.53;1.20;;;24.20;95.10;;;;;;4939057;29;20496;-91
2023/08/13 12:07:02;;;;;;;2.00;1.20;;;24.20;95.10;;;;;;4938846;29;20423;-91
2023/08/13 12:09:29;;;;;;;1.27;1.17;;;24.10;95.10;;;;;;4939043;29;20453;-91
2023/08/13 12:11:57;;;;;;;2.33;1.10;;;24.20;95.10;;;;;;4938866;29;20449;-91
2023/08/13 12:14:27;;;;;;;1.80;1.40;;;24.20;95.10;;;;;;4938954;29;20452;-91
2023/08/13 12:16:54;;;;;;;1.17;1.07;;;24.20;95.10;;;;;;4938994;29;20523;-91
2023/08/13 12:19:21;;;;;;;1.77;1.43;;;24.20;95.10;;;;;;4938744;29;20480;-91
2023/08/13 12:21:50;;;;;;;1.47;0.90;;;24.20;95.10;;;;;;4937935;29;20500;-91
2023/08/13 12:24:23;;;;;;;1.20;1.00;;;24.20;95.10;;;;;;4939424;29;20476;-91
2023/08/13 12:26:50;;;;;;;1.60;1.30;;;24.10;95.10;;;;;;4921611;29;20852;-90
2023/08/13 12:29:19;;;;;;;2.70;1.40;;;24.20;95.20;;;;;;4938497;29;21004;-91
2023/08/13 12:31:47;;;;;;;1.27;1.10;;;24.20;95.10;;;;;;4938686;29;20600;-91
2023/08/13 12:34:14;;;;;;;1.57;1.23;;;24.20;95.10;;;;;;4938584;29;20510;-91
2023/08/13 12:36:46;;;;;;;3.17;1.10;;;24.20;95.00;;;;;;4938403;29;20579;-91
2023/08/13 12:39:13;;;;;;;1.37;1.10;;;24.20;95.10;;;;;;4938175;29;20539;-90
2023/08/13 12:41:42;;;;;;;1.97;1.00;;;24.20;95.10;;;;;;4938291;29;20443;-91
2023/08/13 12:44:09;;;;;;;1.70;1.20;;;24.20;95.00;;;;;;4937874;29;20537;-91
2023/08/13 12:46:38;;;;;;;1.97;1.40;;;24.20;95.00;;;;;;4938377;29;20449;-91
2023/08/13 12:49:07;;;;;;;2.60;1.10;;;24.20;95.00;;;;;;4938309;29;20848;-91
2023/08/13 12:51:34;;;;;;;1.40;1.20;;;24.20;95.00;;;;;;4938624;29;20448;-91
2023/08/13 12:54:01;;;;;;;1.60;1.30;;;24.20;95.00;;;;;;4938387;29;20473;-90
2023/08/13 12:56:28;;;;;;;1.77;1.30;;;24.20;95.00;;;;;;4937967;29;20579;-91
2023/08/13 12:58:55;;;;;;;1.37;1.07;;;24.20;95.00;;;;;;4938161;29;20536;-90
2023/08/13 13:01:22;;;;;;;1.70;1.10;;;24.20;94.90;;;;;;4937924;29;20451;-91
2023/08/13 13:03:50;;;;;;;1.30;1.07;;;24.20;95.00;;;;;;4938261;29;20923;-91